Rockland, Maine
Current Conditions -  °F | °C
As of 4:55 AM on Friday 31 Oct 2014 (Local Time) from KRKD Reporting Station
Broken Clouds Broken Clouds  
Wind Chill: 31°   Ceiling: 4800
Heat Index: 36°   Visibility: 10mi
Dew Point: 32°   Wind: 6mph
Humidity: 87%   Direction: 290°WNW
Pressure: 30.01"   Gusts: NA
Location:  44.1°N, 69.11°W
Report Text: KRKD 310855Z AUTO 29005KT 10SM BKN048 02/00 A3001 RMK AO1 52007
Loading
Personal Weather Stations






























Interactive Weather Map New forecast layout! Learn more

10-Day Weather Forecast

Advertisements
Track Severe Weather on mobile